Wan Hai 501 — S6AS7 — position and weather

sailwx.info

Track history (hours):
 
Tides and Currents Weather Stations Pressure Air Temp Water Temp Dewpoint Dewpoint Depression Visibility Wind Speed Wind Dir Waves Ship Positions

Wan Hai 501

Last reported at 2015-Mar-03 20:26 UTC. Time now 2015-Mar-04 07:06 UTC.
Position N 01°52' E 102°28'.

Length 268 m; draft 11.2 m.

Type: Cargo ship. MMSI: 563382000.

Date/timePositionNaut miles runAvg speedWind from/ knotsBaromVisibWave heightAir tempDewpointWater temp
2015-Mar-03 20:26N 01°52' E 102°28'2319.6
2015-Mar-03 19:16N 01°41' E 102°48'6818.0
2015-Mar-03 15:31N 01°11' E 103°48'5 5.7
2015-Mar-03 14:33N 01°16' E 103°51'0 0.2
2015-Mar-03 13:25N 01°16' E 103°51'0 0.0
2015-Mar-03 12:31N 01°16' E 103°51'0 0.0
2015-Mar-03 11:28N 01°16' E 103°51'0 0.0
2015-Mar-03 10:10N 01°16' E 103°51'0 0.0
2015-Mar-03 09:31N 01°16' E 103°51'0 0.0
2015-Mar-03 08:22N 01°15' E 103°51'0 0.0
2015-Mar-03 07:22N 01°16' E 103°51'0 0.0
2015-Mar-03 06:22N 01°16' E 103°51'0 0.0
2015-Mar-03 04:16N 01°16' E 103°51'0 0.0
2015-Mar-03 03:04N 01°16' E 103°51'0 0.0
2015-Mar-03 02:31N 01°16' E 103°51'0 0.2
2015-Mar-03 01:33N 01°16' E 103°50'3 2.7
2015-Mar-03 00:33N 01°15' E 103°53'0 0.0
2015-Mar-02 23:33N 01°15' E 103°53'0 0.0
2015-Mar-02 22:27N 01°15' E 103°53'0 0.0
2015-Mar-02 21:33N 01°15' E 103°53'0 0.0
2015-Mar-02 20:27N 01°15' E 103°53'0 0.0
2015-Mar-02 19:33N 01°15' E 103°53'0 0.0
2015-Mar-02 18:33N 01°15' E 103°53'0 0.0
2015-Mar-02 17:27N 01°15' E 103°53'0 0.0
2015-Mar-02 16:09N 01°15' E 103°53'0 0.0
2015-Mar-02 15:33N 01°15' E 103°53'0 0.0
2015-Mar-02 14:27N 01°15' E 103°53'0 0.0
2015-Mar-02 13:33N 01°15' E 103°53'0 0.0
2015-Mar-02 12:33N 01°15' E 103°53'0 0.0
2015-Mar-02 11:33N 01°15' E 103°53'0 0.2
2015-Mar-02 10:21N 01°15' E 103°53'0 0.2
2015-Mar-02 09:15N 01°15' E 103°53'0 0.3
2015-Mar-02 08:33N 01°15' E 103°53'0 0.1
2015-Mar-02 07:33N 01°15' E 103°53'0 0.0
2015-Mar-02 06:33N 01°15' E 103°53'0 0.0
2015-Mar-02 05:21N 01°15' E 103°53'0 0.1
2015-Mar-02 04:33N 01°15' E 103°53'0 0.2
2015-Mar-02 03:33N 01°15' E 103°53'0 0.0
2015-Mar-02 02:33N 01°15' E 103°53'0 0.1
2015-Mar-02 01:27N 01°15' E 103°53'0 0.1
2015-Mar-02 00:30N 01°15' E 103°53'0 0.0
2015-Mar-01 23:33N 01°15' E 103°53'0 0.0
2015-Mar-01 22:30N 01°15' E 103°53'0 0.0
2015-Mar-01 21:30N 01°15' E 103°53'0 0.0
2015-Mar-01 19:33N 01°15' E 103°53'0 0.0
2015-Mar-01 18:33N 01°15' E 103°53'2 1.9
2015-Mar-01 17:33N 01°14' E 103°55'1010.3
2015-Mar-01 16:33N 01°16' E 104°04'  
2015-Feb-25 22:33N 22°00' E 114°05'1110.6
2015-Feb-25 21:32N 22°09' E 114°12'1111.4
2015-Feb-25 20:34N 22°18' E 114°06'3 2.6
2015-Feb-25 19:32N 22°20' E 114°08'0 0.0
2015-Feb-25 18:26N 22°20' E 114°08'0 0.0
2015-Feb-25 17:32N 22°20' E 114°08'0 0.0
2015-Feb-25 16:32N 22°20' E 114°08'0 0.0
2015-Feb-25 15:32N 22°20' E 114°08'0 0.0
2015-Feb-25 14:32N 22°20' E 114°08'0 0.0
2015-Feb-25 13:32N 22°20' E 114°08'0 0.0
2015-Feb-25 12:32N 22°20' E 114°08'0 0.1
2015-Feb-25 11:33N 22°20' E 114°08'7 6.9
2015-Feb-25 10:28N 22°13' E 114°10'10 9.8
2015-Feb-25 09:29N 22°05' E 114°17'1 0.0
2015-Feb-24 21:03N 22°05' E 114°16'0 0.0
2015-Feb-24 20:34N 22°05' E 114°16'3 1.0
2015-Feb-24 17:05N 22°07' E 114°19'714.3
2015-Feb-24 16:33N 22°08' E 114°27'8 7.4
2015-Feb-24 15:31N 22°09' E 114°35'21115.0
2015-Feb-24 01:25N 23°37' E 118°04'1315.6
2015-Feb-24 00:33N 23°46' E 118°15'1615.7
2015-Feb-23 23:33N 23°56' E 118°28'1916.3
2015-Feb-23 22:22N 24°09' E 118°43'1417.0
2015-Feb-23 21:33N 24°18' E 118°55'1616.5
2015-Feb-23 20:33N 24°30' E 119°08'1816.5
2015-Feb-23 19:28N 24°42' E 119°22'33015.8
2015-Feb-22 22:33N 29°29' E 122°26'1313.1
2015-Feb-22 21:33N 29°42' E 122°23'1313.2
2015-Feb-22 20:33N 29°51' E 122°12'1110.6
2015-Feb-22 19:33N 29°46' E 122°01'0 0.1
2015-Feb-22 18:33N 29°46' E 122°01'0 0.0
2015-Feb-22 17:21N 29°46' E 122°01'0 0.0
2015-Feb-22 15:33N 29°46' E 122°01'0 0.0
2015-Feb-22 14:21N 29°46' E 122°01'0 0.0
2015-Feb-22 12:09N 29°46' E 122°01'0 0.0
2015-Feb-22 11:09N 29°46' E 122°01'0 0.0
2015-Feb-22 10:21N 29°46' E 122°01'1 0.1
2015-Feb-22 05:32N 29°47' E 122°01'1010.7
2015-Feb-22 04:34N 29°51' E 122°12'1110.6
2015-Feb-22 03:33N 29°46' E 122°23'5 4.6
2015-Feb-22 02:34N 29°45' E 122°28'1311.6
2015-Feb-22 01:25N 29°52' E 122°41'7417.4
2015-Feb-21 21:10N 31°05' E 122°33'813.8
2015-Feb-21 20:34N 31°06' E 122°23'  
Track history (hours):
 
Tides and Currents Weather Stations Pressure Air Temp Water Temp Dewpoint Dewpoint Depression Visibility Wind Speed Wind Dir Waves Ship Positions

Wan Hai 501

Last reported at 2015-Mar-03 20:26 UTC. Time now 2015-Mar-04 07:06 UTC.
Position N 01°52' E 102°28'.

Length 268 m; draft 11.2 m.

Type: Cargo ship. MMSI: 563382000.

Date/timePositionNaut miles runAvg speedWind from/ knotsBaromVisibWave heightAir tempDewpointWater temp
2015-Mar-03 20:26N 01°52' E 102°28'2319.6
2015-Mar-03 19:16N 01°41' E 102°48'6818.0
2015-Mar-03 15:31N 01°11' E 103°48'5 5.7
2015-Mar-03 14:33N 01°16' E 103°51'0 0.2
2015-Mar-03 13:25N 01°16' E 103°51'0 0.0
2015-Mar-03 12:31N 01°16' E 103°51'0 0.0
2015-Mar-03 11:28N 01°16' E 103°51'0 0.0
2015-Mar-03 10:10N 01°16' E 103°51'0 0.0
2015-Mar-03 09:31N 01°16' E 103°51'0 0.0
2015-Mar-03 08:22N 01°15' E 103°51'0 0.0
2015-Mar-03 07:22N 01°16' E 103°51'0 0.0
2015-Mar-03 06:22N 01°16' E 103°51'0 0.0
2015-Mar-03 04:16N 01°16' E 103°51'0 0.0
2015-Mar-03 03:04N 01°16' E 103°51'0 0.0
2015-Mar-03 02:31N 01°16' E 103°51'0 0.2
2015-Mar-03 01:33N 01°16' E 103°50'3 2.7
2015-Mar-03 00:33N 01°15' E 103°53'0 0.0
2015-Mar-02 23:33N 01°15' E 103°53'0 0.0
2015-Mar-02 22:27N 01°15' E 103°53'0 0.0
2015-Mar-02 21:33N 01°15' E 103°53'0 0.0
2015-Mar-02 20:27N 01°15' E 103°53'0 0.0
2015-Mar-02 19:33N 01°15' E 103°53'0 0.0
2015-Mar-02 18:33N 01°15' E 103°53'0 0.0
2015-Mar-02 17:27N 01°15' E 103°53'0 0.0
2015-Mar-02 16:09N 01°15' E 103°53'0 0.0
2015-Mar-02 15:33N 01°15' E 103°53'0 0.0
2015-Mar-02 14:27N 01°15' E 103°53'0 0.0
2015-Mar-02 13:33N 01°15' E 103°53'0 0.0
2015-Mar-02 12:33N 01°15' E 103°53'0 0.0
2015-Mar-02 11:33N 01°15' E 103°53'0 0.2
2015-Mar-02 10:21N 01°15' E 103°53'0 0.2
2015-Mar-02 09:15N 01°15' E 103°53'0 0.3
2015-Mar-02 08:33N 01°15' E 103°53'0 0.1
2015-Mar-02 07:33N 01°15' E 103°53'0 0.0
2015-Mar-02 06:33N 01°15' E 103°53'0 0.0
2015-Mar-02 05:21N 01°15' E 103°53'0 0.1
2015-Mar-02 04:33N 01°15' E 103°53'0 0.2
2015-Mar-02 03:33N 01°15' E 103°53'0 0.0
2015-Mar-02 02:33N 01°15' E 103°53'0 0.1
2015-Mar-02 01:27N 01°15' E 103°53'0 0.1
2015-Mar-02 00:30N 01°15' E 103°53'0 0.0
2015-Mar-01 23:33N 01°15' E 103°53'0 0.0
2015-Mar-01 22:30N 01°15' E 103°53'0 0.0
2015-Mar-01 21:30N 01°15' E 103°53'0 0.0
2015-Mar-01 19:33N 01°15' E 103°53'0 0.0
2015-Mar-01 18:33N 01°15' E 103°53'2 1.9
2015-Mar-01 17:33N 01°14' E 103°55'1010.3
2015-Mar-01 16:33N 01°16' E 104°04'  
2015-Feb-25 22:33N 22°00' E 114°05'1110.6
2015-Feb-25 21:32N 22°09' E 114°12'1111.4
2015-Feb-25 20:34N 22°18' E 114°06'3 2.6
2015-Feb-25 19:32N 22°20' E 114°08'0 0.0
2015-Feb-25 18:26N 22°20' E 114°08'0 0.0
2015-Feb-25 17:32N 22°20' E 114°08'0 0.0
2015-Feb-25 16:32N 22°20' E 114°08'0 0.0
2015-Feb-25 15:32N 22°20' E 114°08'0 0.0
2015-Feb-25 14:32N 22°20' E 114°08'0 0.0
2015-Feb-25 13:32N 22°20' E 114°08'0 0.0
2015-Feb-25 12:32N 22°20' E 114°08'0 0.1
2015-Feb-25 11:33N 22°20' E 114°08'7 6.9
2015-Feb-25 10:28N 22°13' E 114°10'10 9.8
2015-Feb-25 09:29N 22°05' E 114°17'1 0.0
2015-Feb-24 21:03N 22°05' E 114°16'0 0.0
2015-Feb-24 20:34N 22°05' E 114°16'3 1.0
2015-Feb-24 17:05N 22°07' E 114°19'714.3
2015-Feb-24 16:33N 22°08' E 114°27'8 7.4
2015-Feb-24 15:31N 22°09' E 114°35'21115.0
2015-Feb-24 01:25N 23°37' E 118°04'1315.6
2015-Feb-24 00:33N 23°46' E 118°15'1615.7
2015-Feb-23 23:33N 23°56' E 118°28'1916.3
2015-Feb-23 22:22N 24°09' E 118°43'1417.0
2015-Feb-23 21:33N 24°18' E 118°55'1616.5
2015-Feb-23 20:33N 24°30' E 119°08'1816.5
2015-Feb-23 19:28N 24°42' E 119°22'33015.8
2015-Feb-22 22:33N 29°29' E 122°26'1313.1
2015-Feb-22 21:33N 29°42' E 122°23'1313.2
2015-Feb-22 20:33N 29°51' E 122°12'1110.6
2015-Feb-22 19:33N 29°46' E 122°01'0 0.1
2015-Feb-22 18:33N 29°46' E 122°01'0 0.0
2015-Feb-22 17:21N 29°46' E 122°01'0 0.0
2015-Feb-22 15:33N 29°46' E 122°01'0 0.0
2015-Feb-22 14:21N 29°46' E 122°01'0 0.0
2015-Feb-22 12:09N 29°46' E 122°01'0 0.0
2015-Feb-22 11:09N 29°46' E 122°01'0 0.0
2015-Feb-22 10:21N 29°46' E 122°01'1 0.1
2015-Feb-22 05:32N 29°47' E 122°01'1010.7
2015-Feb-22 04:34N 29°51' E 122°12'1110.6
2015-Feb-22 03:33N 29°46' E 122°23'5 4.6
2015-Feb-22 02:34N 29°45' E 122°28'1311.6
2015-Feb-22 01:25N 29°52' E 122°41'7417.4
2015-Feb-21 21:10N 31°05' E 122°33'813.8
2015-Feb-21 20:34N 31°06' E 122°23'  

Dump ship's entire track history